< < Back
Terminal Aerodrome Forecast


Current Version              Previous Versions:   1  2  3  4  5  6  7  8  9  

Terminal Aerodrome Forecast

939
FTUS42 KTAE 251720
TAFVLD
TAF
KVLD 251720Z 2518/2618 07004KT P6SM VCTS BKN040CB
     FM252200 10003KT P6SM SCT100
     FM261000 00000KT 2SM BR SCT025
     FM261300 06005KT P6SM BKN030=

Latest METAR

688
SAUS70 KWBC 260000 RRM
MTRVLD
METAR KVLD 252353Z 00000KT 10SM BKN043 OVC065 26/23 A3000 RMK AO2 SLP165
60000 T02560228 10333 20256 51007


USA.gov is the U.S. government's official web portal to all federal, state and local government web resources and services.